Time;durP1;ratioP1;P1;durP2;ratioP2;P2;SDS_P1;SDS_P2;PMS_P1;PMS_P2;Temp;Humidity;BMP_temperature;BMP_pressure;BME280_temperature;BME280_humidity;BME280_pressure;Samples;Min_cycle;Max_cycle;Signal;HPM_P1;HPM_P2
2022/01/02 00:01:44;;;;;;;5.63;3.35;;;12.90;83.90;;;;;;5076443;28;20035;-72
2022/01/02 00:04:18;;;;;;;6.10;3.63;;;12.90;84.00;;;;;;5085768;28;20046;-73
2022/01/02 00:06:52;;;;;;;5.35;3.60;;;12.90;83.90;;;;;;5103384;28;20039;-74
2022/01/02 00:09:32;;;;;;;4.72;3.58;;;12.90;83.90;;;;;;5092412;28;20437;-72
2022/01/02 00:12:19;;;;;;;4.30;3.30;;;12.90;83.80;;;;;;5075691;28;20073;-73
2022/01/02 00:14:47;;;;;;;6.07;4.30;;;12.90;83.80;;;;;;5086321;28;20431;-72
2022/01/02 00:17:23;;;;;;;4.75;3.20;;;12.90;83.80;;;;;;5101758;28;20031;-73
2022/01/02 00:19:55;;;;;;;4.10;3.17;;;12.90;83.80;;;;;;5095270;28;20028;-72
2022/01/02 00:22:29;;;;;;;4.35;3.35;;;12.90;83.70;;;;;;5065247;28;20041;-72
2022/01/02 00:24:56;;;;;;;4.40;3.60;;;12.80;83.60;;;;;;5081585;28;20081;-72
2022/01/02 00:27:22;;;;;;;9.57;4.05;;;12.90;83.70;;;;;;5091219;28;20389;-72
2022/01/02 00:29:50;;;;;;;6.18;3.92;;;12.80;83.40;;;;;;5083183;28;20546;-74
2022/01/02 00:32:16;;;;;;;5.90;3.40;;;12.90;83.70;;;;;;5078332;28;20085;-74
2022/01/02 00:34:43;;;;;;;5.93;3.80;;;12.80;83.70;;;;;;5081382;28;20031;-74
2022/01/02 00:37:09;;;;;;;6.03;3.90;;;12.80;83.70;;;;;;5081502;28;20036;-74
2022/01/02 00:39:36;;;;;;;6.43;4.10;;;12.80;83.70;;;;;;5071299;28;20029;-73
2022/01/02 00:42:08;;;;;;;4.68;3.38;;;12.80;83.50;;;;;;5062393;28;20031;-73
2022/01/02 00:44:46;;;;;;;6.72;3.90;;;12.80;83.40;;;;;;5090541;28;20020;-73
2022/01/02 00:47:30;;;;;;;4.30;3.40;;;12.80;83.40;;;;;;5072848;28;20039;-74
2022/01/02 00:50:11;;;;;;;6.25;3.63;;;12.80;83.30;;;;;;5091845;28;20042;-74
2022/01/02 00:52:43;;;;;;;6.53;4.22;;;12.80;83.20;;;;;;5077948;28;20031;-74
2022/01/02 00:55:10;;;;;;;;;;;12.80;82.80;;;;;;5071297;28;20147;-73
2022/01/02 00:57:39;;;;;;;6.25;3.50;;;12.80;82.90;;;;;;5083323;28;19908;-73
2022/01/02 01:00:09;;;;;;;6.40;4.20;;;12.80;83.20;;;;;;5091862;28;20421;-74
2022/01/02 01:02:55;;;;;;;6.13;3.85;;;12.80;83.40;;;;;;5071660;28;20054;-73
2022/01/02 01:05:33;;;;;;;6.03;3.53;;;12.80;83.50;;;;;;5091728;28;20477;-74
2022/01/02 01:08:02;;;;;;;4.88;3.50;;;12.80;83.60;;;;;;5090082;28;20034;-74
2022/01/02 01:10:31;;;;;;;6.90;3.95;;;12.80;83.80;;;;;;5073758;28;20034;-74
2022/01/02 01:13:00;;;;;;;7.47;3.92;;;12.80;83.90;;;;;;5083455;28;20457;-74
2022/01/02 01:15:28;;;;;;;6.55;4.00;;;12.80;83.90;;;;;;5091702;28;20047;-75
2022/01/02 01:17:56;;;;;;;7.22;3.58;;;12.80;84.00;;;;;;5072468;28;20040;-74
2022/01/02 01:20:23;;;;;;;7.55;3.30;;;12.70;84.10;;;;;;5091688;28;20374;-74
2022/01/02 01:22:49;;;;;;;6.25;3.78;;;12.70;84.30;;;;;;5075882;28;20033;-73
2022/01/02 01:25:18;;;;;;;6.75;3.80;;;12.70;84.30;;;;;;5071418;28;20119;-73
2022/01/02 01:27:52;;;;;;;5.90;3.30;;;12.70;84.60;;;;;;5079305;28;20501;-73
2022/01/02 01:30:21;;;;;;;7.80;4.68;;;12.70;84.80;;;;;;5073454;28;20152;-73
2022/01/02 01:32:47;;;;;;;8.45;4.00;;;12.70;85.00;;;;;;5087300;28;20541;-73
2022/01/02 01:35:13;;;;;;;8.98;4.60;;;12.70;85.10;;;;;;5091424;28;20501;-73
2022/01/02 01:37:39;;;;;;;8.18;4.18;;;12.70;85.50;;;;;;5084290;28;20029;-73
2022/01/02 01:40:07;;;;;;;7.47;3.75;;;12.60;85.50;;;;;;5069466;28;20082;-73
2022/01/02 01:42:38;;;;;;;6.95;3.53;;;12.60;85.70;;;;;;5071864;28;20118;-73
2022/01/02 01:47:46;;;;;;;5.55;3.90;;;12.60;86.10;;;;;;5070637;28;20453;-73
2022/01/02 01:50:12;;;;;;;7.70;3.67;;;12.60;86.30;;;;;;5036296;28;20039;-73
2022/01/02 01:52:38;;;;;;;8.80;3.95;;;12.60;86.40;;;;;;5093046;28;20044;-74
2022/01/02 01:55:05;;;;;;;13.27;4.18;;;12.60;86.50;;;;;;5076278;28;20087;-73
2022/01/02 01:57:31;;;;;;;8.73;4.00;;;12.60;86.60;;;;;;5070586;28;20467;-74
2022/01/02 01:59:57;;;;;;;10.52;4.22;;;12.50;86.80;;;;;;5079803;28;20099;-75
2022/01/02 02:02:23;;;;;;;10.27;3.95;;;12.50;86.90;;;;;;5106965;28;20108;-75
2022/01/02 02:04:49;;;;;;;7.78;4.13;;;12.50;87.00;;;;;;5091618;28;20046;-75
2022/01/02 02:07:15;;;;;;;8.18;4.05;;;12.60;87.10;;;;;;5073922;28;20025;-76
2022/01/02 02:10:28;;;;;;;10.50;4.15;;;12.60;87.30;;;;;;5086137;28;20025;-76
2022/01/02 02:12:29;;;;;;;9.02;4.22;;;12.50;87.30;;;;;;5081165;28;20044;-76
2022/01/02 02:14:56;;;;;;;9.57;4.20;;;12.50;87.30;;;;;;5091374;28;20048;-76
2022/01/02 02:17:22;;;;;;;8.82;3.90;;;12.50;87.50;;;;;;5091501;28;20060;-76
2022/01/02 02:19:49;;;;;;;8.05;3.90;;;12.60;87.70;;;;;;5098062;28;20024;-76
2022/01/02 02:22:15;;;;;;;8.20;4.50;;;12.60;87.70;;;;;;5071996;28;20390;-76
2022/01/02 02:24:41;;;;;;;12.73;4.65;;;12.50;87.80;;;;;;5071969;28;20033;-76
2022/01/02 02:27:07;;;;;;;9.77;4.03;;;12.50;87.90;;;;;;5072020;28;20501;-76
2022/01/02 02:29:32;;;;;;;7.15;3.72;;;12.50;88.20;;;;;;5078151;28;20036;-76
2022/01/02 02:31:58;;;;;;;10.40;4.75;;;12.50;88.20;;;;;;5092692;28;20024;-77
2022/01/02 02:34:24;;;;;;;6.60;4.10;;;12.50;88.10;;;;;;5074608;28;20031;-76
2022/01/02 02:36:50;;;;;;;11.70;4.00;;;12.50;88.20;;;;;;5092119;28;20024;-76
2022/01/02 02:39:15;;;;;;;10.05;5.07;;;12.50;88.30;;;;;;5091977;28;20141;-76
2022/01/02 02:41:43;;;;;;;7.05;3.90;;;12.50;88.50;;;;;;5063134;28;20036;-77
2022/01/02 02:44:20;;;;;;;7.38;3.95;;;12.50;88.40;;;;;;5091802;28;20044;-75
2022/01/02 02:49:30;;;;;;;6.90;3.58;;;12.50;88.50;;;;;;5073903;28;20079;-72
2022/01/02 02:52:05;;;;;;;9.70;3.90;;;12.50;88.50;;;;;;5052443;28;20052;-73
2022/01/02 02:54:31;;;;;;;12.93;4.05;;;12.50;88.70;;;;;;5097006;28;20510;-75
2022/01/02 02:57:01;;;;;;;8.93;3.80;;;12.50;88.90;;;;;;5106556;28;20124;-76
2022/01/02 02:59:29;;;;;;;9.55;4.03;;;12.60;88.90;;;;;;5076120;28;20012;-76
2022/01/02 03:01:56;;;;;;;8.13;3.35;;;12.60;89.00;;;;;;5087995;28;20483;-76
2022/01/02 03:04:22;;;;;;;12.52;3.97;;;12.60;89.00;;;;;;5075760;28;20025;-75
2022/01/02 03:06:48;;;;;;;9.88;3.88;;;12.70;89.00;;;;;;5094302;28;20039;-76
2022/01/02 03:09:17;;;;;;;11.07;4.35;;;12.70;88.90;;;;;;5088917;28;20482;-75
2022/01/02 03:11:43;;;;;;;11.18;3.85;;;12.70;88.80;;;;;;5094739;28;20032;-76
2022/01/02 03:14:11;;;;;;;10.10;3.33;;;12.70;88.80;;;;;;5079148;28;20039;-75
2022/01/02 03:16:38;;;;;;;9.70;3.80;;;12.80;88.80;;;;;;5094267;28;20032;-75
2022/01/02 03:19:04;;;;;;;12.48;3.85;;;12.80;88.80;;;;;;5094425;28;20035;-76
2022/01/02 03:21:30;;;;;;;10.60;4.20;;;12.80;88.70;;;;;;5094320;28;20027;-76
2022/01/02 03:23:56;;;;;;;10.82;3.45;;;12.80;88.70;;;;;;5104459;28;20089;-76
2022/01/02 03:26:21;;;;;;;9.77;3.13;;;12.80;88.60;;;;;;5075049;28;20043;-76
2022/01/02 03:28:47;;;;;;;6.20;3.00;;;12.90;88.60;;;;;;5095245;28;20039;-76
2022/01/02 03:31:13;;;;;;;8.80;3.45;;;12.90;88.60;;;;;;5094266;28;20035;-76
2022/01/02 03:33:39;;;;;;;11.18;3.50;;;12.90;88.40;;;;;;5093942;28;20036;-76
2022/01/02 03:36:06;;;;;;;11.18;3.50;;;12.90;88.30;;;;;;5090770;28;20029;-76
2022/01/02 03:38:32;;;;;;;10.70;3.10;;;12.90;88.20;;;;;;5073065;28;20062;-77
2022/01/02 03:40:58;;;;;;;13.10;4.07;;;12.90;88.20;;;;;;5101699;28;20445;-76
2022/01/02 03:43:23;;;;;;;9.65;3.25;;;13.00;88.10;;;;;;5092805;28;20047;-77
2022/01/02 03:45:50;;;;;;;15.10;3.65;;;13.00;88.10;;;;;;5093666;28;20028;-77
2022/01/02 03:48:15;;;;;;;12.80;3.95;;;13.00;88.00;;;;;;5075615;28;20020;-77
2022/01/02 03:50:41;;;;;;;11.73;3.05;;;13.00;87.90;;;;;;5093710;28;20022;-78
2022/01/02 03:53:08;;;;;;;10.20;4.05;;;13.00;87.70;;;;;;5095107;28;20073;-78
2022/01/02 03:55:34;;;;;;;7.78;3.10;;;13.00;87.60;;;;;;5076431;28;20040;-77
2022/01/02 03:58:00;;;;;;;11.80;3.30;;;13.10;87.70;;;;;;5094823;28;20063;-78
2022/01/02 04:00:25;;;;;;;10.95;3.75;;;13.10;87.60;;;;;;5094948;28;20078;-77
2022/01/02 04:02:51;;;;;;;8.95;2.85;;;13.10;87.60;;;;;;5076450;28;20020;-77
2022/01/02 04:05:17;;;;;;;9.15;3.08;;;13.10;87.60;;;;;;5059944;28;20130;-78
2022/01/02 04:07:44;;;;;;;7.47;3.50;;;13.10;87.50;;;;;;5094124;28;20027;-77
2022/01/02 04:10:13;;;;;;;8.93;2.92;;;13.10;87.60;;;;;;5076344;28;20027;-77
2022/01/02 04:12:40;;;;;;;12.85;3.60;;;13.10;87.50;;;;;;5094339;28;20034;-77
2022/01/02 04:15:08;;;;;;;8.25;3.60;;;13.10;87.40;;;;;;5073056;28;20106;-75
2022/01/02 04:17:34;;;;;;;6.15;2.80;;;13.10;87.30;;;;;;5067566;28;20020;-74
2022/01/02 04:20:01;;;;;;;8.18;2.85;;;13.10;87.20;;;;;;5088199;28;20016;-74
2022/01/02 04:22:26;;;;;;;7.18;2.97;;;13.20;87.20;;;;;;5098282;28;20060;-74
2022/01/02 04:24:52;;;;;;;9.68;2.92;;;13.20;87.20;;;;;;5072797;28;20101;-74
2022/01/02 04:27:20;;;;;;;6.22;2.38;;;13.20;87.20;;;;;;5088078;28;20040;-74
2022/01/02 04:29:46;;;;;;;7.93;3.08;;;13.20;87.20;;;;;;5089524;28;20046;-73
2022/01/02 04:32:15;;;;;;;9.10;3.00;;;13.20;87.20;;;;;;5078105;28;20043;-73
2022/01/02 04:34:41;;;;;;;11.75;3.75;;;13.20;87.10;;;;;;5091778;28;20079;-73
2022/01/02 04:37:07;;;;;;;6.93;2.58;;;13.20;86.90;;;;;;5067969;28;20058;-74
2022/01/02 04:39:33;;;;;;;10.45;3.20;;;13.30;87.00;;;;;;5092174;28;20485;-73
2022/01/02 04:41:59;;;;;;;10.80;3.22;;;13.30;86.90;;;;;;5087546;28;20429;-73
2022/01/02 04:44:26;;;;;;;7.43;3.08;;;13.30;87.00;;;;;;5084316;28;20074;-73
2022/01/02 04:46:52;;;;;;;8.93;2.92;;;13.30;87.10;;;;;;5084976;28;20472;-73
2022/01/02 04:49:18;;;;;;;8.25;3.08;;;13.30;87.00;;;;;;5073584;28;20024;-73
2022/01/02 04:51:44;;;;;;;11.40;3.08;;;13.30;87.20;;;;;;5065374;28;20035;-73
2022/01/02 04:54:10;;;;;;;10.20;3.35;;;13.20;87.10;;;;;;5090580;28;20105;-73
2022/01/02 04:56:36;;;;;;;9.63;4.10;;;13.20;87.20;;;;;;5091371;28;20032;-74
2022/01/02 04:59:01;;;;;;;11.15;3.20;;;13.20;87.30;;;;;;5071254;28;20507;-74
2022/01/02 05:01:27;;;;;;;8.75;3.35;;;13.20;87.30;;;;;;5063929;28;20028;-74
2022/01/02 05:03:52;;;;;;;10.50;3.85;;;13.20;87.40;;;;;;5096353;28;20040;-74
2022/01/02 05:06:19;;;;;;;7.63;3.17;;;13.20;87.50;;;;;;5098854;28;20027;-75
2022/01/02 05:08:45;;;;;;;11.30;3.85;;;13.10;87.50;;;;;;5096064;28;20124;-74
2022/01/02 05:11:13;;;;;;;10.00;3.50;;;13.10;87.50;;;;;;5116493;27;20486;-74
2022/01/02 05:13:40;;;;;;;8.32;3.20;;;13.10;87.50;;;;;;5082251;28;20024;-76
2022/01/02 05:16:06;;;;;;;11.45;3.42;;;13.10;88.20;;;;;;5087774;28;20383;-76
2022/01/02 05:18:32;;;;;;;7.82;3.25;;;13.00;87.80;;;;;;5084888;28;20540;-76
2022/01/02 05:20:58;;;;;;;6.28;3.58;;;13.00;87.90;;;;;;5101780;28;20051;-76
2022/01/02 05:23:24;;;;;;;7.43;2.88;;;13.00;88.00;;;;;;5096422;28;20020;-76
2022/01/02 05:25:50;;;;;;;6.53;3.00;;;13.00;88.00;;;;;;5099742;28;20028;-77
2022/01/02 05:28:16;;;;;;;9.63;4.32;;;13.00;88.10;;;;;;5101356;28;20024;-77
2022/01/02 05:30:42;;;;;;;11.07;3.47;;;13.00;88.10;;;;;;5099255;28;20074;-76
2022/01/02 05:33:08;;;;;;;7.78;2.95;;;12.90;88.10;;;;;;5114577;27;20023;-77
2022/01/02 05:35:34;;;;;;;9.75;4.70;;;12.90;88.20;;;;;;5104609;28;20046;-76
2022/01/02 05:38:01;;;;;;;5.43;3.30;;;12.90;88.30;;;;;;5082886;28;20032;-77
2022/01/02 05:40:32;;;;;;;7.40;3.22;;;12.90;88.40;;;;;;5087586;28;20169;-76
2022/01/02 05:42:59;;;;;;;8.07;3.65;;;12.90;88.50;;;;;;5117255;27;20502;-77
2022/01/02 05:45:24;;;;;;;11.15;3.42;;;12.90;88.60;;;;;;5099210;28;20027;-77
2022/01/02 05:47:50;;;;;;;9.50;3.53;;;12.90;88.70;;;;;;5104431;28;20786;-76
2022/01/02 05:50:16;;;;;;;11.82;3.30;;;12.90;88.70;;;;;;5078679;28;20038;-76
2022/01/02 05:52:41;;;;;;;9.70;4.10;;;12.80;88.70;;;;;;5092839;28;20029;-76
2022/01/02 05:55:07;;;;;;;8.25;3.85;;;12.80;88.80;;;;;;5111593;27;20192;-76
2022/01/02 05:57:33;;;;;;;8.00;3.70;;;12.80;88.90;;;;;;5101456;28;20020;-77
2022/01/02 05:59:59;;;;;;;7.82;3.58;;;12.80;88.90;;;;;;5083236;28;20032;-76
2022/01/02 06:02:24;;;;;;;9.10;3.67;;;12.80;88.80;;;;;;5094476;28;20035;-76
2022/01/02 06:04:50;;;;;;;6.00;3.30;;;12.80;89.00;;;;;;5099958;28;20454;-76
2022/01/02 06:07:16;;;;;;;8.82;3.42;;;12.80;89.00;;;;;;5117428;28;20141;-76
2022/01/02 06:09:42;;;;;;;9.95;3.88;;;12.80;89.50;;;;;;5066935;28;20034;-76
2022/01/02 06:12:08;;;;;;;8.93;3.55;;;12.70;89.00;;;;;;5104040;28;20111;-76
2022/01/02 06:14:34;;;;;;;6.55;3.35;;;12.70;89.00;;;;;;5080237;28;20451;-76
2022/01/02 06:16:59;;;;;;;6.22;3.35;;;12.70;89.00;;;;;;5096256;28;20142;-76
2022/01/02 06:19:25;;;;;;;8.18;3.60;;;12.70;89.10;;;;;;5092199;28;20077;-76
2022/01/02 06:21:51;;;;;;;6.60;3.40;;;12.80;89.70;;;;;;5073064;28;20479;-76
2022/01/02 06:24:17;;;;;;;8.57;3.67;;;12.70;89.00;;;;;;5074429;28;20390;-76
2022/01/02 06:26:42;;;;;;;6.80;3.33;;;12.70;89.00;;;;;;5073985;28;20024;-76
2022/01/02 06:29:08;;;;;;;6.65;3.78;;;12.70;88.90;;;;;;5102808;28;20037;-76
2022/01/02 06:31:34;;;;;;;7.90;3.40;;;12.70;88.90;;;;;;5053811;28;20396;-76
2022/01/02 06:34:00;;;;;;;6.28;3.15;;;12.70;89.00;;;;;;5047617;28;20032;-76
2022/01/02 06:36:25;;;;;;;10.02;3.78;;;12.70;89.00;;;;;;5092474;28;20032;-76
2022/01/02 06:38:51;;;;;;;8.10;4.20;;;12.70;89.00;;;;;;5077817;28;20020;-76
2022/01/02 06:41:17;;;;;;;8.98;3.58;;;12.70;88.90;;;;;;5092450;28;20033;-76
2022/01/02 06:43:43;;;;;;;7.85;3.38;;;12.70;88.90;;;;;;5083155;28;20063;-76
2022/01/02 06:46:09;;;;;;;7.10;3.40;;;12.70;88.80;;;;;;5079137;28;20513;-76
2022/01/02 06:48:35;;;;;;;8.63;3.05;;;12.70;88.70;;;;;;5067297;28;20107;-76
2022/01/02 06:51:00;;;;;;;8.15;3.13;;;12.70;88.70;;;;;;5077341;28;20388;-76
2022/01/02 06:53:26;;;;;;;7.53;3.50;;;12.70;88.70;;;;;;5057357;28;20036;-76
2022/01/02 06:55:52;;;;;;;6.07;3.10;;;12.70;88.50;;;;;;5058288;28;20067;-76
2022/01/02 06:58:17;;;;;;;8.85;3.05;;;12.70;88.50;;;;;;5085270;28;20121;-76
2022/01/02 07:00:43;;;;;;;7.97;3.30;;;12.70;88.40;;;;;;5082194;28;20016;-77
2022/01/02 07:03:10;;;;;;;7.40;2.90;;;12.70;88.50;;;;;;5102836;28;20463;-77
2022/01/02 07:05:36;;;;;;;6.10;3.35;;;12.70;88.60;;;;;;5091244;28;20024;-77
2022/01/02 07:08:01;;;;;;;8.05;2.97;;;12.70;88.60;;;;;;5111498;28;20035;-76
2022/01/02 07:10:27;;;;;;;9.32;3.67;;;12.70;88.60;;;;;;5078965;28;20033;-77
2022/01/02 07:12:53;;;;;;;5.85;3.05;;;12.70;88.50;;;;;;5080418;28;20020;-76
2022/01/02 07:15:18;;;;;;;7.13;3.05;;;12.60;88.40;;;;;;5076553;28;20044;-77
2022/01/02 07:17:44;;;;;;;5.45;3.03;;;12.70;88.50;;;;;;5074852;28;20160;-77
2022/01/02 07:20:12;;;;;;;6.60;3.13;;;12.60;88.30;;;;;;5102494;28;20028;-77
2022/01/02 07:22:40;;;;;;;6.78;3.22;;;12.70;88.40;;;;;;5080652;28;20032;-76
2022/01/02 07:25:07;;;;;;;4.80;2.50;;;12.70;88.40;;;;;;5094290;28;20035;-77
2022/01/02 07:27:33;;;;;;;4.82;2.55;;;12.70;88.30;;;;;;5060829;28;20390;-76
2022/01/02 07:29:59;;;;;;;5.03;2.95;;;12.70;88.30;;;;;;5093226;28;20032;-76
2022/01/02 07:32:25;;;;;;;5.18;2.63;;;12.70;88.30;;;;;;5059057;28;20055;-77
2022/01/02 07:34:50;;;;;;;6.40;3.25;;;12.70;88.30;;;;;;5090101;28;20056;-77
2022/01/02 07:37:17;;;;;;;8.75;3.03;;;12.70;88.20;;;;;;5090326;28;20451;-77
2022/01/02 07:39:43;;;;;;;5.57;3.40;;;12.70;88.20;;;;;;5074735;28;20021;-77
2022/01/02 07:42:09;;;;;;;9.90;3.10;;;12.70;88.00;;;;;;5072067;28;20398;-77
2022/01/02 07:44:36;;;;;;;4.95;3.05;;;12.70;88.00;;;;;;5102590;28;20033;-77
2022/01/02 07:47:03;;;;;;;5.15;2.83;;;12.80;88.00;;;;;;5106288;28;20066;-77
2022/01/02 07:49:29;;;;;;;4.45;2.83;;;12.70;87.90;;;;;;5094428;28;20060;-77
2022/01/02 07:51:55;;;;;;;9.38;3.40;;;12.70;87.90;;;;;;5082823;28;20052;-77
2022/01/02 07:54:20;;;;;;;9.68;3.28;;;12.70;87.80;;;;;;5058215;28;20067;-77
2022/01/02 07:56:46;;;;;;;5.70;3.17;;;12.70;87.90;;;;;;5085852;28;20387;-77
2022/01/02 07:59:12;;;;;;;6.63;3.35;;;12.70;87.90;;;;;;5094637;28;20024;-77
2022/01/02 08:01:38;;;;;;;6.88;3.70;;;12.70;87.60;;;;;;5082157;28;20017;-77
2022/01/02 08:04:03;;;;;;;6.85;3.05;;;12.60;87.60;;;;;;5077104;28;20032;-77
2022/01/02 08:06:29;;;;;;;6.30;3.40;;;12.60;87.70;;;;;;5080551;28;20033;-77
2022/01/02 08:08:55;;;;;;;4.50;2.75;;;12.60;87.80;;;;;;5073479;28;20036;-77
2022/01/02 08:11:20;;;;;;;8.48;3.05;;;12.60;87.70;;;;;;5106251;28;20032;-77
2022/01/02 08:13:46;;;;;;;9.63;3.47;;;12.60;87.50;;;;;;5093421;28;20038;-77
2022/01/02 08:16:12;;;;;;;8.57;3.10;;;12.60;87.60;;;;;;5094312;28;20050;-77
2022/01/02 08:18:40;;;;;;;6.03;2.95;;;12.60;87.50;;;;;;5109126;28;20021;-77
2022/01/02 08:21:06;;;;;;;7.72;3.22;;;12.60;87.40;;;;;;5078977;28;20025;-77
2022/01/02 08:23:32;;;;;;;10.63;3.90;;;12.60;87.30;;;;;;5093521;28;20077;-77
2022/01/02 08:25:58;;;;;;;7.15;3.65;;;12.60;87.20;;;;;;5075411;28;20429;-77
2022/01/02 08:28:24;;;;;;;9.05;3.40;;;12.60;87.20;;;;;;5093483;28;20016;-77
2022/01/02 08:30:49;;;;;;;5.47;3.30;;;12.60;87.20;;;;;;5084381;28;20036;-73
2022/01/02 08:33:15;;;;;;;5.22;2.90;;;12.60;87.40;;;;;;5084388;28;20031;-75
2022/01/02 08:35:42;;;;;;;6.78;3.67;;;12.50;87.30;;;;;;5088352;28;20032;-74
2022/01/02 08:38:08;;;;;;;10.35;4.07;;;12.50;87.00;;;;;;5103065;28;20509;-72
2022/01/02 08:40:37;;;;;;;6.72;3.60;;;12.50;87.00;;;;;;5079862;28;20051;-72
2022/01/02 08:43:02;;;;;;;5.75;3.03;;;12.50;87.00;;;;;;5087735;28;20128;-67
2022/01/02 08:45:28;;;;;;;4.68;3.10;;;12.50;87.00;;;;;;5097025;28;20500;-72
2022/01/02 08:47:54;;;;;;;6.07;3.38;;;12.50;87.10;;;;;;5065086;28;20371;-77
2022/01/02 08:50:19;;;;;;;5.15;3.15;;;12.50;86.70;;;;;;5072634;28;20032;-71
2022/01/02 08:52:45;;;;;;;10.20;3.35;;;12.50;86.50;;;;;;5089840;28;20032;-71
2022/01/02 08:55:11;;;;;;;5.82;3.20;;;12.50;86.40;;;;;;5092150;28;20055;-71
2022/01/02 08:57:36;;;;;;;5.80;3.20;;;12.50;86.40;;;;;;5092174;28;20391;-72
2022/01/02 09:00:04;;;;;;;6.38;3.85;;;12.50;86.20;;;;;;5066911;28;20467;-73
2022/01/02 09:02:29;;;;;;;7.93;3.60;;;12.50;86.00;;;;;;5080146;28;20034;-73
2022/01/02 09:04:55;;;;;;;7.88;2.95;;;12.50;85.90;;;;;;5088360;28;20119;-73
2022/01/02 09:07:21;;;;;;;4.25;2.63;;;12.50;86.00;;;;;;5072358;28;20035;-73
2022/01/02 09:09:46;;;;;;;5.53;2.60;;;12.50;86.00;;;;;;5103322;27;20032;-73
2022/01/02 09:12:14;;;;;;;7.20;3.35;;;12.50;86.60;;;;;;5091638;28;20423;-73
2022/01/02 09:14:43;;;;;;;4.90;2.60;;;12.50;85.70;;;;;;5071879;28;20036;-73
2022/01/02 09:17:09;;;;;;;8.18;3.70;;;12.50;85.80;;;;;;5086340;28;20029;-73
2022/01/02 09:19:35;;;;;;;6.20;3.30;;;12.50;85.40;;;;;;5071619;28;20021;-77
2022/01/02 09:22:02;;;;;;;4.53;2.97;;;12.50;85.00;;;;;;5065248;28;20016;-76
2022/01/02 09:24:28;;;;;;;6.07;2.88;;;12.50;84.70;;;;;;5068561;28;20024;-76
2022/01/02 09:26:54;;;;;;;4.70;2.83;;;12.50;84.60;;;;;;5090390;28;20043;-77
2022/01/02 09:29:19;;;;;;;9.45;3.35;;;12.50;84.50;;;;;;5072358;28;20043;-76
2022/01/02 09:31:45;;;;;;;7.25;3.25;;;12.50;84.00;;;;;;5079134;28;20032;-76
2022/01/02 09:34:11;;;;;;;4.72;3.30;;;12.60;83.90;;;;;;5083324;28;20390;-76
2022/01/02 09:36:37;;;;;;;5.88;3.42;;;12.60;84.00;;;;;;5060948;28;20039;-76
2022/01/02 09:39:04;;;;;;;3.95;2.95;;;12.60;83.50;;;;;;5088543;28;20028;-76
2022/01/02 09:41:31;;;;;;;6.18;3.40;;;12.60;83.70;;;;;;5092500;28;20036;-75
2022/01/02 09:43:57;;;;;;;6.20;3.08;;;12.60;83.60;;;;;;5086693;28;20140;-76
2022/01/02 09:46:25;;;;;;;7.20;3.47;;;12.60;83.40;;;;;;5058199;28;20020;-77
2022/01/02 09:48:52;;;;;;;4.50;2.80;;;12.70;83.90;;;;;;5079615;28;20154;-75
2022/01/02 09:51:21;;;;;;;7.78;3.67;;;12.70;83.40;;;;;;5075135;28;20039;-76
2022/01/02 09:53:48;;;;;;;7.28;3.88;;;12.70;82.70;;;;;;5071677;28;20053;-76
2022/01/02 09:56:17;;;;;;;7.57;3.60;;;12.70;82.70;;;;;;5045213;28;20032;-76
2022/01/02 09:58:44;;;;;;;7.28;3.28;;;12.70;82.80;;;;;;5057897;28;20115;-76
2022/01/02 10:01:18;;;;;;;5.75;3.70;;;12.70;83.20;;;;;;5074590;28;20024;-76
2022/01/02 10:03:47;;;;;;;6.53;3.67;;;12.70;83.10;;;;;;5089299;28;20036;-75
2022/01/02 10:06:13;;;;;;;5.53;3.20;;;12.70;83.00;;;;;;5086359;28;20031;-75
2022/01/02 10:08:39;;;;;;;6.88;3.67;;;12.70;83.10;;;;;;5083384;28;20040;-75
2022/01/02 10:11:19;;;;;;;7.35;3.53;;;12.70;82.70;;;;;;5103537;28;20035;-75
2022/01/02 10:13:48;;;;;;;6.35;4.05;;;12.70;82.70;;;;;;5088008;28;20466;-75
2022/01/02 10:16:23;;;;;;;9.05;3.78;;;12.70;82.90;;;;;;5086161;28;20649;-75
2022/01/02 10:18:51;;;;;;;5.95;3.83;;;12.70;83.00;;;;;;5092250;28;20024;-75
2022/01/02 10:21:38;;;;;;;8.32;4.30;;;12.80;83.20;;;;;;5094291;28;20019;-76
2022/01/02 10:24:42;;;;;;;7.55;4.00;;;12.80;82.90;;;;;;5079773;28;20504;-76
2022/01/02 10:27:19;;;;;;;6.53;4.03;;;13.00;82.90;;;;;;5031316;28;20216;-76
2022/01/02 10:29:58;;;;;;;9.35;4.32;;;13.00;82.30;;;;;;5067605;28;20042;-75
2022/01/02 10:32:34;;;;;;;7.75;4.18;;;13.00;82.40;;;;;;5079007;28;20031;-75
2022/01/02 10:35:21;;;;;;;11.73;4.75;;;13.00;82.10;;;;;;5093549;28;20557;-75
2022/01/02 10:37:56;;;;;;;6.95;4.55;;;12.90;82.40;;;;;;5087382;28;20026;-73
2022/01/02 10:40:32;;;;;;;10.18;4.90;;;12.90;82.50;;;;;;5058820;28;20021;-73
2022/01/02 10:43:00;;;;;;;8.68;4.43;;;12.90;82.60;;;;;;5098431;28;20020;-73
2022/01/02 10:45:38;;;;;;;7.82;4.32;;;12.90;82.80;;;;;;5095882;28;20020;-73
2022/01/02 10:48:07;;;;;;;9.20;4.63;;;12.90;82.70;;;;;;5094102;28;20032;-73
2022/01/02 10:50:33;;;;;;;8.07;5.07;;;12.90;82.80;;;;;;5072737;28;20049;-73
2022/01/02 10:53:12;;;;;;;7.78;4.18;;;13.00;82.50;;;;;;5079049;28;20090;-73
2022/01/02 10:55:38;;;;;;;8.30;4.65;;;13.00;82.30;;;;;;5093893;28;20039;-73
2022/01/02 10:58:07;;;;;;;8.50;4.55;;;13.00;82.30;;;;;;5069901;28;20043;-73
2022/01/02 11:00:33;;;;;;;8.95;4.57;;;13.00;82.20;;;;;;5090924;28;20031;-73
2022/01/02 11:02:59;;;;;;;10.18;5.05;;;13.00;82.30;;;;;;5096791;28;20044;-73
2022/01/02 11:05:28;;;;;;;11.25;4.95;;;13.00;82.10;;;;;;5086408;28;20035;-73
2022/01/02 11:07:58;;;;;;;10.63;4.97;;;13.00;82.10;;;;;;5090801;28;20085;-70
2022/01/02 11:10:27;;;;;;;7.13;4.43;;;13.00;82.30;;;;;;5073293;28;20478;-71
2022/01/02 11:12:54;;;;;;;9.70;5.00;;;13.00;82.50;;;;;;5055925;28;20118;-71
2022/01/02 11:15:27;;;;;;;7.13;4.80;;;13.00;82.50;;;;;;5089550;28;20045;-71
2022/01/02 11:17:54;;;;;;;8.82;4.55;;;13.00;82.50;;;;;;5085041;28;20013;-71
2022/01/02 11:20:29;;;;;;;8.90;4.25;;;13.00;82.50;;;;;;5086643;28;20036;-71
2022/01/02 11:22:57;;;;;;;8.95;4.38;;;13.00;82.60;;;;;;5091547;28;20510;-71
2022/01/02 11:25:46;;;;;;;10.30;4.28;;;13.00;82.70;;;;;;5090994;28;20069;-71
2022/01/02 11:28:59;;;;;;;10.35;4.70;;;13.00;82.60;;;;;;5093996;28;20520;-71
2022/01/02 11:31:34;;;;;;;10.80;4.22;;;13.00;82.60;;;;;;5046303;28;20492;-70
2022/01/02 11:34:00;;;;;;;10.15;4.20;;;13.00;82.80;;;;;;5039803;28;20049;-77
2022/01/02 11:36:35;;;;;;;8.13;3.92;;;13.00;82.60;;;;;;5077435;28;20081;-70
2022/01/02 11:39:09;;;;;;;8.95;4.00;;;13.00;83.30;;;;;;5090299;28;20063;-68
2022/01/02 11:41:52;;;;;;;8.20;4.25;;;13.00;82.60;;;;;;5087544;28;20426;-72
2022/01/02 11:44:23;;;;;;;10.63;4.50;;;13.00;82.70;;;;;;5060104;28;20487;-73
2022/01/02 11:46:57;;;;;;;8.88;4.20;;;13.00;82.60;;;;;;5063484;28;20085;-73
2022/01/02 11:49:27;;;;;;;10.75;4.28;;;13.00;82.80;;;;;;5082725;28;20023;-73
2022/01/02 11:51:56;;;;;;;9.73;4.32;;;13.10;82.90;;;;;;5090523;28;20028;-73
2022/01/02 11:54:47;;;;;;;15.55;5.35;;;13.10;83.00;;;;;;5086840;28;20050;-73
2022/01/02 11:57:18;;;;;;;13.00;4.20;;;13.10;82.90;;;;;;5088627;28;20032;-73
2022/01/02 11:59:46;;;;;;;12.20;4.00;;;13.10;82.90;;;;;;5073707;28;20374;-73
2022/01/02 12:02:18;;;;;;;11.95;4.18;;;13.10;82.90;;;;;;5082974;28;20463;-73
2022/01/02 12:04:59;;;;;;;12.10;4.13;;;13.10;83.00;;;;;;5089377;28;20028;-73
2022/01/02 12:07:33;;;;;;;10.93;4.30;;;13.10;82.90;;;;;;5087217;28;20024;-73
2022/01/02 12:10:14;;;;;;;12.07;4.00;;;13.20;82.80;;;;;;5085522;28;20040;-72
2022/01/02 12:13:18;;;;;;;13.00;4.25;;;13.20;82.80;;;;;;5077336;28;20025;-72
2022/01/02 12:15:44;;;;;;;12.65;4.03;;;13.20;82.80;;;;;;5080292;28;20029;-72
2022/01/02 12:18:25;;;;;;;8.48;3.30;;;13.20;82.90;;;;;;5072786;28;20465;-72
2022/01/02 12:20:51;;;;;;;7.00;3.40;;;13.10;82.90;;;;;;5094188;28;20036;-71
2022/01/02 12:23:41;;;;;;;9.90;3.90;;;13.20;82.80;;;;;;5062822;28;20036;-71
2022/01/02 12:26:21;;;;;;;12.32;3.70;;;13.20;83.00;;;;;;5087663;28;20086;-72
2022/01/02 12:29:01;;;;;;;8.75;3.40;;;13.20;83.00;;;;;;5070427;28;20024;-72
2022/01/02 12:31:35;;;;;;;11.27;4.20;;;13.20;83.00;;;;;;5082179;28;20020;-72
2022/01/02 12:34:12;;;;;;;7.60;3.25;;;13.20;83.20;;;;;;5075441;28;20039;-72
2022/01/02 12:36:42;;;;;;;14.50;4.80;;;13.20;83.20;;;;;;5076947;28;20024;-71
2022/01/02 12:39:16;;;;;;;12.73;3.92;;;13.20;83.00;;;;;;5082327;28;20078;-72
2022/01/02 12:41:44;;;;;;;13.15;4.00;;;13.20;82.80;;;;;;5082474;28;20101;-72
2022/01/02 12:44:28;;;;;;;11.35;3.97;;;13.30;82.70;;;;;;5085662;28;20020;-72
2022/01/02 12:46:59;;;;;;;9.55;3.97;;;13.30;82.60;;;;;;5081308;28;20060;-72
2022/01/02 12:49:29;;;;;;;11.82;3.95;;;13.30;82.60;;;;;;5081601;28;20056;-71
2022/01/02 12:51:57;;;;;;;8.80;3.75;;;13.30;82.70;;;;;;5066290;28;20040;-71
2022/01/02 12:54:29;;;;;;;10.38;3.63;;;13.30;82.50;;;;;;5089307;28;20426;-72
2022/01/02 12:56:58;;;;;;;9.70;3.58;;;13.40;82.30;;;;;;5080667;28;20039;-71
2022/01/02 12:59:32;;;;;;;7.88;3.33;;;13.40;82.40;;;;;;5075173;28;20032;-71